sensor_id;sensor_type;location;lat;lon;timestamp;temperature;humidity
68977;SHT31;56029;52.568;13.588;2024-01-30T00:00:22;1.11;89.19
68977;SHT31;56029;52.568;13.588;2024-01-30T00:03:08;1.06;89.16
68977;SHT31;56029;52.568;13.588;2024-01-30T00:05:33;1.04;89.24
68977;SHT31;56029;52.568;13.588;2024-01-30T00:07:59;0.99;89.25
68977;SHT31;56029;52.568;13.588;2024-01-30T00:10:24;0.96;89.30
68977;SHT31;56029;52.568;13.588;2024-01-30T00:12:50;0.92;89.31
68977;SHT31;56029;52.568;13.588;2024-01-30T00:15:15;0.89;89.35
68977;SHT31;56029;52.568;13.588;2024-01-30T00:17:41;0.88;89.36
68977;SHT31;56029;52.568;13.588;2024-01-30T00:20:07;0.84;89.45
68977;SHT31;56029;52.568;13.588;2024-01-30T00:22:32;0.81;89.55
68977;SHT31;56029;52.568;13.588;2024-01-30T00:24:58;0.78;89.53
68977;SHT31;56029;52.568;13.588;2024-01-30T00:27:23;0.77;89.51
68977;SHT31;56029;52.568;13.588;2024-01-30T00:29:49;0.74;89.58
68977;SHT31;56029;52.568;13.588;2024-01-30T00:32:15;0.73;89.59
68977;SHT31;56029;52.568;13.588;2024-01-30T00:34:41;0.65;89.64
68977;SHT31;56029;52.568;13.588;2024-01-30T00:37:07;0.65;89.85
68977;SHT31;56029;52.568;13.588;2024-01-30T00:39:32;0.61;89.89
68977;SHT31;56029;52.568;13.588;2024-01-30T00:41:58;0.60;90.12
68977;SHT31;56029;52.568;13.588;2024-01-30T00:44:24;0.54;90.10
68977;SHT31;56029;52.568;13.588;2024-01-30T00:46:49;0.52;90.16
68977;SHT31;56029;52.568;13.588;2024-01-30T00:49:15;0.56;90.17
68977;SHT31;56029;52.568;13.588;2024-01-30T00:51:40;0.54;90.03
68977;SHT31;56029;52.568;13.588;2024-01-30T00:54:06;0.53;90.04
68977;SHT31;56029;52.568;13.588;2024-01-30T00:56:33;0.52;90.00
68977;SHT31;56029;52.568;13.588;2024-01-30T00:58:58;0.50;90.12
68977;SHT31;56029;52.568;13.588;2024-01-30T01:01:24;0.47;90.16
68977;SHT31;56029;52.568;13.588;2024-01-30T01:03:49;0.44;90.11
68977;SHT31;56029;52.568;13.588;2024-01-30T01:06:15;0.47;90.19
68977;SHT31;56029;52.568;13.588;2024-01-30T01:08:40;0.42;90.15
68977;SHT31;56029;52.568;13.588;2024-01-30T01:11:06;0.44;90.11
68977;SHT31;56029;52.568;13.588;2024-01-30T01:13:31;0.43;90.09
68977;SHT31;56029;52.568;13.588;2024-01-30T01:15:57;0.42;90.15
68977;SHT31;56029;52.568;13.588;2024-01-30T01:18:23;0.42;90.20
68977;SHT31;56029;52.568;13.588;2024-01-30T01:20:49;0.39;90.16
68977;SHT31;56029;52.568;13.588;2024-01-30T01:23:14;0.37;90.20
68977;SHT31;56029;52.568;13.588;2024-01-30T01:25:40;0.37;90.27
68977;SHT31;56029;52.568;13.588;2024-01-30T01:28:05;0.34;90.25
68977;SHT31;56029;52.568;13.588;2024-01-30T01:30:31;0.32;90.24
68977;SHT31;56029;52.568;13.588;2024-01-30T01:32:56;0.33;90.13
68977;SHT31;56029;52.568;13.588;2024-01-30T01:35:22;0.33;89.99
68977;SHT31;56029;52.568;13.588;2024-01-30T01:37:48;0.34;90.05
68977;SHT31;56029;52.568;13.588;2024-01-30T01:40:14;0.33;90.02
68977;SHT31;56029;52.568;13.588;2024-01-30T01:42:39;0.33;90.11
68977;SHT31;56029;52.568;13.588;2024-01-30T01:45:05;0.33;90.19
68977;SHT31;56029;52.568;13.588;2024-01-30T01:47:30;0.29;90.13
68977;SHT31;56029;52.568;13.588;2024-01-30T01:49:56;0.27;90.55
68977;SHT31;56029;52.568;13.588;2024-01-30T01:52:23;0.25;90.13
68977;SHT31;56029;52.568;13.588;2024-01-30T01:54:49;0.23;89.98
68977;SHT31;56029;52.568;13.588;2024-01-30T01:57:14;0.22;90.05
68977;SHT31;56029;52.568;13.588;2024-01-30T01:59:40;0.22;90.59
68977;SHT31;56029;52.568;13.588;2024-01-30T02:02:07;0.22;90.63
68977;SHT31;56029;52.568;13.588;2024-01-30T02:04:34;0.20;90.49
68977;SHT31;56029;52.568;13.588;2024-01-30T02:07:00;0.23;90.31
68977;SHT31;56029;52.568;13.588;2024-01-30T02:09:25;0.23;90.48
68977;SHT31;56029;52.568;13.588;2024-01-30T02:11:51;0.25;90.59
68977;SHT31;56029;52.568;13.588;2024-01-30T02:14:17;0.23;90.76
68977;SHT31;56029;52.568;13.588;2024-01-30T02:16:42;0.19;90.65
68977;SHT31;56029;52.568;13.588;2024-01-30T02:19:08;0.20;90.61
68977;SHT31;56029;52.568;13.588;2024-01-30T02:21:33;0.19;90.90
68977;SHT31;56029;52.568;13.588;2024-01-30T02:23:59;0.17;90.81
68977;SHT31;56029;52.568;13.588;2024-01-30T02:26:25;0.19;90.76
68977;SHT31;56029;52.568;13.588;2024-01-30T02:28:50;0.13;91.10
68977;SHT31;56029;52.568;13.588;2024-01-30T02:31:16;0.12;91.14
68977;SHT31;56029;52.568;13.588;2024-01-30T02:33:41;0.16;91.15
68977;SHT31;56029;52.568;13.588;2024-01-30T02:36:07;0.12;91.36
68977;SHT31;56029;52.568;13.588;2024-01-30T02:38:33;0.13;91.28
68977;SHT31;56029;52.568;13.588;2024-01-30T02:40:58;0.15;91.47
68977;SHT31;56029;52.568;13.588;2024-01-30T02:43:24;0.17;91.40
68977;SHT31;56029;52.568;13.588;2024-01-30T02:45:49;0.16;91.36
68977;SHT31;56029;52.568;13.588;2024-01-30T02:48:15;0.17;91.33
68977;SHT31;56029;52.568;13.588;2024-01-30T02:50:40;0.17;91.44
68977;SHT31;56029;52.568;13.588;2024-01-30T02:53:06;0.15;91.45
68977;SHT31;56029;52.568;13.588;2024-01-30T02:55:31;0.17;91.60
68977;SHT31;56029;52.568;13.588;2024-01-30T02:57:57;0.13;91.47
68977;SHT31;56029;52.568;13.588;2024-01-30T03:00:23;0.17;91.45
68977;SHT31;56029;52.568;13.588;2024-01-30T03:02:49;0.16;91.46
68977;SHT31;56029;52.568;13.588;2024-01-30T03:05:14;0.13;91.49
68977;SHT31;56029;52.568;13.588;2024-01-30T03:07:40;0.15;91.43
68977;SHT31;56029;52.568;13.588;2024-01-30T03:10:06;0.15;91.37
68977;SHT31;56029;52.568;13.588;2024-01-30T03:12:32;0.17;91.52
68977;SHT31;56029;52.568;13.588;2024-01-30T03:14:57;0.16;91.68
68977;SHT31;56029;52.568;13.588;2024-01-30T03:17:23;0.13;91.87
68977;SHT31;56029;52.568;13.588;2024-01-30T03:19:48;0.15;91.74
68977;SHT31;56029;52.568;13.588;2024-01-30T03:22:14;0.13;91.91
68977;SHT31;56029;52.568;13.588;2024-01-30T03:24:39;0.13;91.78
68977;SHT31;56029;52.568;13.588;2024-01-30T03:27:05;0.12;91.81
68977;SHT31;56029;52.568;13.588;2024-01-30T03:29:30;0.10;91.87
68977;SHT31;56029;52.568;13.588;2024-01-30T03:31:56;0.10;92.02
68977;SHT31;56029;52.568;13.588;2024-01-30T03:34:21;0.09;92.03
68977;SHT31;56029;52.568;13.588;2024-01-30T03:36:47;0.06;91.95
68977;SHT31;56029;52.568;13.588;2024-01-30T03:39:12;0.09;91.99
68977;SHT31;56029;52.568;13.588;2024-01-30T03:41:42;0.10;92.05
68977;SHT31;56029;52.568;13.588;2024-01-30T03:44:07;0.10;92.03
68977;SHT31;56029;52.568;13.588;2024-01-30T03:46:33;0.06;92.04
68977;SHT31;56029;52.568;13.588;2024-01-30T03:48:58;0.07;92.05
68977;SHT31;56029;52.568;13.588;2024-01-30T03:51:24;0.02;92.10
68977;SHT31;56029;52.568;13.588;2024-01-30T03:53:49;0.03;92.11
68977;SHT31;56029;52.568;13.588;2024-01-30T03:56:15;0.05;92.09
68977;SHT31;56029;52.568;13.588;2024-01-30T03:58:40;0.02;92.15
68977;SHT31;56029;52.568;13.588;2024-01-30T04:01:07;0.03;92.26
68977;SHT31;56029;52.568;13.588;2024-01-30T04:03:32;0.02;92.46
68977;SHT31;56029;52.568;13.588;2024-01-30T04:05:58;0.01;92.57
68977;SHT31;56029;52.568;13.588;2024-01-30T04:08:24;0.03;92.59
68977;SHT31;56029;52.568;13.588;2024-01-30T04:10:49;0.06;92.63
68977;SHT31;56029;52.568;13.588;2024-01-30T04:13:15;0.05;92.73
68977;SHT31;56029;52.568;13.588;2024-01-30T04:15:40;0.07;92.84
68977;SHT31;56029;52.568;13.588;2024-01-30T04:18:06;0.06;92.86
68977;SHT31;56029;52.568;13.588;2024-01-30T04:20:32;0.09;92.90
68977;SHT31;56029;52.568;13.588;2024-01-30T04:22:57;0.13;92.64
68977;SHT31;56029;52.568;13.588;2024-01-30T04:25:23;0.15;92.74
68977;SHT31;56029;52.568;13.588;2024-01-30T04:27:48;0.12;92.66
68977;SHT31;56029;52.568;13.588;2024-01-30T04:30:14;0.12;92.84
68977;SHT31;56029;52.568;13.588;2024-01-30T04:32:39;0.13;92.79
68977;SHT31;56029;52.568;13.588;2024-01-30T04:35:05;0.17;92.97
68977;SHT31;56029;52.568;13.588;2024-01-30T04:37:31;0.15;92.92
68977;SHT31;56029;52.568;13.588;2024-01-30T04:39:57;0.22;92.83
68977;SHT31;56029;52.568;13.588;2024-01-30T04:42:22;0.23;92.91
68977;SHT31;56029;52.568;13.588;2024-01-30T04:44:48;0.27;92.72
68977;SHT31;56029;52.568;13.588;2024-01-30T04:47:13;0.30;92.80
68977;SHT31;56029;52.568;13.588;2024-01-30T04:49:39;0.30;92.86
68977;SHT31;56029;52.568;13.588;2024-01-30T04:52:05;0.33;92.83
68977;SHT31;56029;52.568;13.588;2024-01-30T04:54:31;0.33;92.79
68977;SHT31;56029;52.568;13.588;2024-01-30T04:56:57;0.33;92.88
68977;SHT31;56029;52.568;13.588;2024-01-30T04:59:22;0.34;92.77
68977;SHT31;56029;52.568;13.588;2024-01-30T05:01:48;0.33;92.89
68977;SHT31;56029;52.568;13.588;2024-01-30T05:04:13;0.36;92.87
68977;SHT31;56029;52.568;13.588;2024-01-30T05:06:39;0.34;92.91
68977;SHT31;56029;52.568;13.588;2024-01-30T05:09:04;0.34;92.97
68977;SHT31;56029;52.568;13.588;2024-01-30T05:11:30;0.36;92.98
68977;SHT31;56029;52.568;13.588;2024-01-30T05:13:56;0.37;93.03
68977;SHT31;56029;52.568;13.588;2024-01-30T05:16:22;0.37;93.07
68977;SHT31;56029;52.568;13.588;2024-01-30T05:18:48;0.34;93.09
68977;SHT31;56029;52.568;13.588;2024-01-30T05:21:13;0.34;93.21
68977;SHT31;56029;52.568;13.588;2024-01-30T05:23:39;0.30;93.27
68977;SHT31;56029;52.568;13.588;2024-01-30T05:26:04;0.32;93.34
68977;SHT31;56029;52.568;13.588;2024-01-30T05:28:30;0.30;93.29
68977;SHT31;56029;52.568;13.588;2024-01-30T05:30:56;0.32;93.38
68977;SHT31;56029;52.568;13.588;2024-01-30T05:33:22;0.57;93.59
68977;SHT31;56029;52.568;13.588;2024-01-30T05:35:47;0.29;93.53
68977;SHT31;56029;52.568;13.588;2024-01-30T05:38:13;0.29;93.47
68977;SHT31;56029;52.568;13.588;2024-01-30T05:40:38;0.29;93.46
68977;SHT31;56029;52.568;13.588;2024-01-30T05:43:04;0.30;93.51
68977;SHT31;56029;52.568;13.588;2024-01-30T05:45:29;0.27;93.53
68977;SHT31;56029;52.568;13.588;2024-01-30T05:47:55;0.29;93.61
68977;SHT31;56029;52.568;13.588;2024-01-30T05:50:20;0.29;93.41
68977;SHT31;56029;52.568;13.588;2024-01-30T05:52:46;0.26;93.50
68977;SHT31;56029;52.568;13.588;2024-01-30T05:55:12;0.23;93.74
68977;SHT31;56029;52.568;13.588;2024-01-30T05:57:38;0.19;93.84
68977;SHT31;56029;52.568;13.588;2024-01-30T06:00:05;0.20;93.98
68977;SHT31;56029;52.568;13.588;2024-01-30T06:02:31;0.19;93.80
68977;SHT31;56029;52.568;13.588;2024-01-30T06:04:56;0.23;93.79
68977;SHT31;56029;52.568;13.588;2024-01-30T06:07:22;0.20;93.81
68977;SHT31;56029;52.568;13.588;2024-01-30T06:09:47;0.25;93.64
68977;SHT31;56029;52.568;13.588;2024-01-30T06:12:13;0.26;93.81
68977;SHT31;56029;52.568;13.588;2024-01-30T06:14:39;0.23;93.80
68977;SHT31;56029;52.568;13.588;2024-01-30T06:17:04;0.23;93.85
68977;SHT31;56029;52.568;13.588;2024-01-30T06:19:30;0.22;93.91
68977;SHT31;56029;52.568;13.588;2024-01-30T06:21:55;0.20;94.05
68977;SHT31;56029;52.568;13.588;2024-01-30T06:24:21;0.22;93.96
68977;SHT31;56029;52.568;13.588;2024-01-30T06:26:46;0.25;93.96
68977;SHT31;56029;52.568;13.588;2024-01-30T06:29:12;0.20;93.88
68977;SHT31;56029;52.568;13.588;2024-01-30T06:31:40;0.20;93.84
68977;SHT31;56029;52.568;13.588;2024-01-30T06:34:06;0.20;93.91
68977;SHT31;56029;52.568;13.588;2024-01-30T06:36:31;0.19;93.98
68977;SHT31;56029;52.568;13.588;2024-01-30T06:38:57;0.17;94.30
68977;SHT31;56029;52.568;13.588;2024-01-30T06:41:23;0.20;94.22
68977;SHT31;56029;52.568;13.588;2024-01-30T06:43:48;0.17;94.44
68977;SHT31;56029;52.568;13.588;2024-01-30T06:46:14;0.23;94.26
68977;SHT31;56029;52.568;13.588;2024-01-30T06:48:39;0.23;94.16
68977;SHT31;56029;52.568;13.588;2024-01-30T06:51:05;0.25;94.19
68977;SHT31;56029;52.568;13.588;2024-01-30T06:53:30;0.25;94.18
68977;SHT31;56029;52.568;13.588;2024-01-30T06:55:56;0.25;94.08
68977;SHT31;56029;52.568;13.588;2024-01-30T06:58:21;0.20;94.11
68977;SHT31;56029;52.568;13.588;2024-01-30T07:00:47;0.25;94.11
68977;SHT31;56029;52.568;13.588;2024-01-30T07:03:12;0.22;94.30
68977;SHT31;56029;52.568;13.588;2024-01-30T07:05:38;0.23;94.21
68977;SHT31;56029;52.568;13.588;2024-01-30T07:08:04;0.26;94.23
68977;SHT31;56029;52.568;13.588;2024-01-30T07:10:29;0.27;94.25
68977;SHT31;56029;52.568;13.588;2024-01-30T07:12:55;0.30;94.25
68977;SHT31;56029;52.568;13.588;2024-01-30T07:15:20;0.32;94.21
68977;SHT31;56029;52.568;13.588;2024-01-30T07:17:46;0.34;94.33
68977;SHT31;56029;52.568;13.588;2024-01-30T07:20:12;0.36;94.17
68977;SHT31;56029;52.568;13.588;2024-01-30T07:22:37;0.40;94.20
68977;SHT31;56029;52.568;13.588;2024-01-30T07:25:03;0.43;94.19
68977;SHT31;56029;52.568;13.588;2024-01-30T07:27:28;0.43;94.27
68977;SHT31;56029;52.568;13.588;2024-01-30T07:29:54;0.50;94.18
68977;SHT31;56029;52.568;13.588;2024-01-30T07:32:20;0.56;94.19
68977;SHT31;56029;52.568;13.588;2024-01-30T07:34:45;0.58;94.06
68977;SHT31;56029;52.568;13.588;2024-01-30T07:37:11;0.64;94.01
68977;SHT31;56029;52.568;13.588;2024-01-30T07:39:36;0.68;93.89
68977;SHT31;56029;52.568;13.588;2024-01-30T07:42:02;0.73;94.00
68977;SHT31;56029;52.568;13.588;2024-01-30T07:44:28;0.80;93.96
68977;SHT31;56029;52.568;13.588;2024-01-30T07:46:53;0.88;93.80
68977;SHT31;56029;52.568;13.588;2024-01-30T07:49:19;0.94;93.68
68977;SHT31;56029;52.568;13.588;2024-01-30T07:51:44;1.05;93.59
68977;SHT31;56029;52.568;13.588;2024-01-30T07:54:10;1.11;93.47
68977;SHT31;56029;52.568;13.588;2024-01-30T07:56:35;1.19;93.29
68977;SHT31;56029;52.568;13.588;2024-01-30T07:59:01;1.26;93.27
68977;SHT31;56029;52.568;13.588;2024-01-30T08:01:26;1.33;93.39
68977;SHT31;56029;52.568;13.588;2024-01-30T08:03:52;1.39;93.22
68977;SHT31;56029;52.568;13.588;2024-01-30T08:06:17;1.43;93.29
68977;SHT31;56029;52.568;13.588;2024-01-30T08:08:43;1.52;93.14
68977;SHT31;56029;52.568;13.588;2024-01-30T08:11:08;1.57;93.06
68977;SHT31;56029;52.568;13.588;2024-01-30T08:13:34;1.60;93.14
68977;SHT31;56029;52.568;13.588;2024-01-30T08:15:59;1.68;93.11
68977;SHT31;56029;52.568;13.588;2024-01-30T08:18:25;1.74;93.02
68977;SHT31;56029;52.568;13.588;2024-01-30T08:20:50;1.81;92.92
68977;SHT31;56029;52.568;13.588;2024-01-30T08:23:16;1.88;92.81
68977;SHT31;56029;52.568;13.588;2024-01-30T08:25:41;1.93;92.85
68977;SHT31;56029;52.568;13.588;2024-01-30T08:28:07;1.95;92.76
68977;SHT31;56029;52.568;13.588;2024-01-30T08:30:33;2.02;92.63
68977;SHT31;56029;52.568;13.588;2024-01-30T08:32:58;2.07;92.43
68977;SHT31;56029;52.568;13.588;2024-01-30T08:35:24;2.17;92.20
68977;SHT31;56029;52.568;13.588;2024-01-30T08:37:49;2.28;91.93
68977;SHT31;56029;52.568;13.588;2024-01-30T08:40:15;2.36;91.30
68977;SHT31;56029;52.568;13.588;2024-01-30T08:42:40;2.41;91.00
68977;SHT31;56029;52.568;13.588;2024-01-30T08:45:06;2.50;90.28
68977;SHT31;56029;52.568;13.588;2024-01-30T08:47:32;2.62;89.97
68977;SHT31;56029;52.568;13.588;2024-01-30T08:49:57;2.73;89.85
68977;SHT31;56029;52.568;13.588;2024-01-30T08:52:23;2.81;89.59
68977;SHT31;56029;52.568;13.588;2024-01-30T08:54:48;2.90;89.57
68977;SHT31;56029;52.568;13.588;2024-01-30T08:57:14;2.97;89.63
68977;SHT31;56029;52.568;13.588;2024-01-30T08:59:39;3.04;88.92
68977;SHT31;56029;52.568;13.588;2024-01-30T09:02:05;3.12;89.14
68977;SHT31;56029;52.568;13.588;2024-01-30T09:04:30;3.22;88.60
68977;SHT31;56029;52.568;13.588;2024-01-30T09:06:56;3.31;88.29
68977;SHT31;56029;52.568;13.588;2024-01-30T09:09:21;3.41;88.01
68977;SHT31;56029;52.568;13.588;2024-01-30T09:11:47;3.58;87.46
68977;SHT31;56029;52.568;13.588;2024-01-30T09:14:15;3.69;86.87
68977;SHT31;56029;52.568;13.588;2024-01-30T09:16:54;3.80;86.86
68977;SHT31;56029;52.568;13.588;2024-01-30T09:19:20;3.94;86.05
68977;SHT31;56029;52.568;13.588;2024-01-30T09:21:45;4.13;85.76
68977;SHT31;56029;52.568;13.588;2024-01-30T09:24:11;4.18;85.42
68977;SHT31;56029;52.568;13.588;2024-01-30T09:26:36;4.27;84.54
68977;SHT31;56029;52.568;13.588;2024-01-30T09:29:02;4.38;84.42
68977;SHT31;56029;52.568;13.588;2024-01-30T09:31:27;4.44;84.31
68977;SHT31;56029;52.568;13.588;2024-01-30T09:33:53;4.45;83.88
68977;SHT31;56029;52.568;13.588;2024-01-30T09:36:18;4.55;83.43
68977;SHT31;56029;52.568;13.588;2024-01-30T09:38:44;4.62;83.29
68977;SHT31;56029;52.568;13.588;2024-01-30T09:41:10;4.72;82.82
68977;SHT31;56029;52.568;13.588;2024-01-30T09:43:37;4.75;82.53
68977;SHT31;56029;52.568;13.588;2024-01-30T09:46:03;4.80;82.13
68977;SHT31;56029;52.568;13.588;2024-01-30T09:48:31;4.85;82.48
68977;SHT31;56029;52.568;13.588;2024-01-30T09:50:58;4.92;81.93
68977;SHT31;56029;52.568;13.588;2024-01-30T09:53:23;5.00;81.68
68977;SHT31;56029;52.568;13.588;2024-01-30T09:55:50;5.03;82.04
68977;SHT31;56029;52.568;13.588;2024-01-30T09:58:15;5.10;81.35
68977;SHT31;56029;52.568;13.588;2024-01-30T10:00:41;5.16;81.50
68977;SHT31;56029;52.568;13.588;2024-01-30T10:03:06;5.20;81.52
68977;SHT31;56029;52.568;13.588;2024-01-30T10:05:35;5.24;80.93
68977;SHT31;56029;52.568;13.588;2024-01-30T10:08:01;5.34;81.32
68977;SHT31;56029;52.568;13.588;2024-01-30T10:10:26;5.36;81.15
68977;SHT31;56029;52.568;13.588;2024-01-30T10:12:52;5.41;81.61
68977;SHT31;56029;52.568;13.588;2024-01-30T10:15:18;5.43;81.08
68977;SHT31;56029;52.568;13.588;2024-01-30T10:17:44;5.52;80.61
68977;SHT31;56029;52.568;13.588;2024-01-30T10:20:10;5.54;80.65
68977;SHT31;56029;52.568;13.588;2024-01-30T10:22:36;5.66;80.37
68977;SHT31;56029;52.568;13.588;2024-01-30T10:25:02;5.69;80.36
68977;SHT31;56029;52.568;13.588;2024-01-30T10:27:27;5.71;80.24
68977;SHT31;56029;52.568;13.588;2024-01-30T10:29:53;5.84;79.85
68977;SHT31;56029;52.568;13.588;2024-01-30T10:32:19;5.86;80.05
68977;SHT31;56029;52.568;13.588;2024-01-30T10:34:45;5.88;78.92
68977;SHT31;56029;52.568;13.588;2024-01-30T10:37:11;5.95;79.15
68977;SHT31;56029;52.568;13.588;2024-01-30T10:39:38;5.99;78.56
68977;SHT31;56029;52.568;13.588;2024-01-30T10:42:05;6.05;79.07
68977;SHT31;56029;52.568;13.588;2024-01-30T10:44:51;6.09;78.59
68977;SHT31;56029;52.568;13.588;2024-01-30T10:47:28;6.19;78.04
68977;SHT31;56029;52.568;13.588;2024-01-30T10:49:55;6.24;78.27
68977;SHT31;56029;52.568;13.588;2024-01-30T10:52:22;6.32;77.93
68977;SHT31;56029;52.568;13.588;2024-01-30T10:54:49;6.30;78.55
68977;SHT31;56029;52.568;13.588;2024-01-30T10:57:15;6.34;77.70
68977;SHT31;56029;52.568;13.588;2024-01-30T10:59:41;6.41;77.07
68977;SHT31;56029;52.568;13.588;2024-01-30T11:02:08;6.45;76.95
68977;SHT31;56029;52.568;13.588;2024-01-30T11:04:38;6.53;76.83
68977;SHT31;56029;52.568;13.588;2024-01-30T11:07:18;6.60;77.93
68977;SHT31;56029;52.568;13.588;2024-01-30T11:09:51;6.60;77.05
68977;SHT31;56029;52.568;13.588;2024-01-30T11:12:21;6.65;76.73
68977;SHT31;56029;52.568;13.588;2024-01-30T11:14:47;6.70;76.06
68977;SHT31;56029;52.568;13.588;2024-01-30T11:17:12;6.77;75.76
68977;SHT31;56029;52.568;13.588;2024-01-30T11:19:38;6.80;76.22
68977;SHT31;56029;52.568;13.588;2024-01-30T11:22:06;6.84;75.08
68977;SHT31;56029;52.568;13.588;2024-01-30T11:24:39;6.92;75.42
68977;SHT31;56029;52.568;13.588;2024-01-30T11:27:08;6.91;74.87
68977;SHT31;56029;52.568;13.588;2024-01-30T11:29:34;7.02;75.00
68977;SHT31;56029;52.568;13.588;2024-01-30T11:32:00;6.98;74.69
68977;SHT31;56029;52.568;13.588;2024-01-30T11:34:26;7.02;75.13
68977;SHT31;56029;52.568;13.588;2024-01-30T11:36:53;7.05;73.90
68977;SHT31;56029;52.568;13.588;2024-01-30T11:39:19;7.11;74.29
68977;SHT31;56029;52.568;13.588;2024-01-30T11:41:45;7.11;74.56
68977;SHT31;56029;52.568;13.588;2024-01-30T11:44:11;7.16;73.77
68977;SHT31;56029;52.568;13.588;2024-01-30T11:46:36;7.22;74.20
68977;SHT31;56029;52.568;13.588;2024-01-30T11:49:02;7.24;74.28
68977;SHT31;56029;52.568;13.588;2024-01-30T11:51:30;7.29;73.78
68977;SHT31;56029;52.568;13.588;2024-01-30T11:53:57;7.34;73.28
68977;SHT31;56029;52.568;13.588;2024-01-30T11:56:24;7.39;73.02
68977;SHT31;56029;52.568;13.588;2024-01-30T11:58:49;7.49;73.60
68977;SHT31;56029;52.568;13.588;2024-01-30T12:01:16;7.54;73.12
68977;SHT31;56029;52.568;13.588;2024-01-30T12:03:42;7.64;72.93
68977;SHT31;56029;52.568;13.588;2024-01-30T12:06:08;7.70;72.44
68977;SHT31;56029;52.568;13.588;2024-01-30T12:08:34;7.74;72.20
68977;SHT31;56029;52.568;13.588;2024-01-30T12:10:59;7.85;71.52
68977;SHT31;56029;52.568;13.588;2024-01-30T12:13:26;7.88;72.48
68977;SHT31;56029;52.568;13.588;2024-01-30T12:15:51;8.01;71.95
68977;SHT31;56029;52.568;13.588;2024-01-30T12:18:20;8.05;71.36
68977;SHT31;56029;52.568;13.588;2024-01-30T12:20:56;8.16;71.79
68977;SHT31;56029;52.568;13.588;2024-01-30T12:23:22;8.22;71.58
68977;SHT31;56029;52.568;13.588;2024-01-30T12:25:47;8.26;71.19
68977;SHT31;56029;52.568;13.588;2024-01-30T12:28:13;8.35;71.90
68977;SHT31;56029;52.568;13.588;2024-01-30T12:30:38;8.38;71.34
68977;SHT31;56029;52.568;13.588;2024-01-30T12:33:04;8.35;71.40
68977;SHT31;56029;52.568;13.588;2024-01-30T12:35:30;8.39;71.36
68977;SHT31;56029;52.568;13.588;2024-01-30T12:37:55;8.36;71.55
68977;SHT31;56029;52.568;13.588;2024-01-30T12:40:21;8.45;71.57
68977;SHT31;56029;52.568;13.588;2024-01-30T12:42:47;8.42;71.41
68977;SHT31;56029;52.568;13.588;2024-01-30T12:45:13;8.38;71.34
68977;SHT31;56029;52.568;13.588;2024-01-30T12:47:39;8.35;71.84
68977;SHT31;56029;52.568;13.588;2024-01-30T12:50:04;8.29;71.57
68977;SHT31;56029;52.568;13.588;2024-01-30T12:52:30;8.36;72.19
68977;SHT31;56029;52.568;13.588;2024-01-30T12:54:56;8.35;71.94
68977;SHT31;56029;52.568;13.588;2024-01-30T12:57:21;8.35;72.29
68977;SHT31;56029;52.568;13.588;2024-01-30T12:59:47;8.35;72.61
68977;SHT31;56029;52.568;13.588;2024-01-30T13:02:13;8.45;72.64
68977;SHT31;56029;52.568;13.588;2024-01-30T13:04:39;8.36;73.37
68977;SHT31;56029;52.568;13.588;2024-01-30T13:07:05;8.42;73.09
68977;SHT31;56029;52.568;13.588;2024-01-30T13:09:31;8.45;72.63
68977;SHT31;56029;52.568;13.588;2024-01-30T13:11:57;8.48;72.61
68977;SHT31;56029;52.568;13.588;2024-01-30T13:14:24;8.42;73.11
68977;SHT31;56029;52.568;13.588;2024-01-30T13:16:49;8.46;72.59
68977;SHT31;56029;52.568;13.588;2024-01-30T13:19:15;8.48;73.08
68977;SHT31;56029;52.568;13.588;2024-01-30T13:21:47;8.45;73.56
68977;SHT31;56029;52.568;13.588;2024-01-30T13:24:14;8.43;73.60
68977;SHT31;56029;52.568;13.588;2024-01-30T13:26:39;8.40;73.41
68977;SHT31;56029;52.568;13.588;2024-01-30T13:29:05;8.43;73.33
68977;SHT31;56029;52.568;13.588;2024-01-30T13:31:30;8.42;74.15
68977;SHT31;56029;52.568;13.588;2024-01-30T13:33:56;8.36;73.95
68977;SHT31;56029;52.568;13.588;2024-01-30T13:36:22;8.38;73.76
68977;SHT31;56029;52.568;13.588;2024-01-30T13:38:47;8.36;74.16
68977;SHT31;56029;52.568;13.588;2024-01-30T13:41:13;8.33;74.44
68977;SHT31;56029;52.568;13.588;2024-01-30T13:43:38;8.35;74.40
68977;SHT31;56029;52.568;13.588;2024-01-30T13:46:04;8.33;74.79
68977;SHT31;56029;52.568;13.588;2024-01-30T13:48:31;8.36;74.73
68977;SHT31;56029;52.568;13.588;2024-01-30T13:50:56;8.35;74.74
68977;SHT31;56029;52.568;13.588;2024-01-30T13:53:22;8.32;74.63
68977;SHT31;56029;52.568;13.588;2024-01-30T13:55:47;8.39;74.91
68977;SHT31;56029;52.568;13.588;2024-01-30T13:58:13;8.40;74.92
68977;SHT31;56029;52.568;13.588;2024-01-30T14:00:38;8.39;74.91
68977;SHT31;56029;52.568;13.588;2024-01-30T14:03:04;8.43;74.97
68977;SHT31;56029;52.568;13.588;2024-01-30T14:05:30;8.36;75.01
68977;SHT31;56029;52.568;13.588;2024-01-30T14:07:56;8.38;75.51
68977;SHT31;56029;52.568;13.588;2024-01-30T14:10:22;8.42;76.30
68977;SHT31;56029;52.568;13.588;2024-01-30T14:12:48;8.39;75.80
68977;SHT31;56029;52.568;13.588;2024-01-30T14:15:13;8.36;75.90
68977;SHT31;56029;52.568;13.588;2024-01-30T14:17:40;8.39;75.84
68977;SHT31;56029;52.568;13.588;2024-01-30T14:20:06;8.38;75.85
68977;SHT31;56029;52.568;13.588;2024-01-30T14:22:33;8.36;75.41
68977;SHT31;56029;52.568;13.588;2024-01-30T14:24:59;8.36;75.87
68977;SHT31;56029;52.568;13.588;2024-01-30T14:27:25;8.35;76.12
68977;SHT31;56029;52.568;13.588;2024-01-30T14:29:51;8.29;76.38
68977;SHT31;56029;52.568;13.588;2024-01-30T14:32:16;8.30;76.42
68977;SHT31;56029;52.568;13.588;2024-01-30T14:34:42;8.24;75.96
68977;SHT31;56029;52.568;13.588;2024-01-30T14:37:08;8.22;75.82
68977;SHT31;56029;52.568;13.588;2024-01-30T14:39:33;8.28;76.14
68977;SHT31;56029;52.568;13.588;2024-01-30T14:41:59;8.18;76.65
68977;SHT31;56029;52.568;13.588;2024-01-30T14:44:25;8.21;76.77
68977;SHT31;56029;52.568;13.588;2024-01-30T14:46:51;8.19;76.63
68977;SHT31;56029;52.568;13.588;2024-01-30T14:49:16;8.13;77.10
68977;SHT31;56029;52.568;13.588;2024-01-30T14:51:42;8.12;76.98
68977;SHT31;56029;52.568;13.588;2024-01-30T14:54:07;8.13;77.06
68977;SHT31;56029;52.568;13.588;2024-01-30T14:56:33;8.09;77.05
68977;SHT31;56029;52.568;13.588;2024-01-30T14:58:59;8.09;77.27
68977;SHT31;56029;52.568;13.588;2024-01-30T15:01:24;8.03;77.82
68977;SHT31;56029;52.568;13.588;2024-01-30T15:03:50;8.01;77.70
68977;SHT31;56029;52.568;13.588;2024-01-30T15:06:16;7.98;77.55
68977;SHT31;56029;52.568;13.588;2024-01-30T15:08:41;7.95;77.75
68977;SHT31;56029;52.568;13.588;2024-01-30T15:11:07;7.92;78.00
68977;SHT31;56029;52.568;13.588;2024-01-30T15:13:32;7.91;77.89
68977;SHT31;56029;52.568;13.588;2024-01-30T15:15:58;7.87;78.71
68977;SHT31;56029;52.568;13.588;2024-01-30T15:18:23;7.84;78.48
68977;SHT31;56029;52.568;13.588;2024-01-30T15:20:49;7.77;78.51